Time;durP1;ratioP1;P1;durP2;ratioP2;P2;SDS_P1;SDS_P2;PMS_P1;PMS_P2;Temp;Humidity;BMP_temperature;BMP_pressure;BME280_temperature;BME280_humidity;BME280_pressure;Samples;Min_cycle;Max_cycle;Signal;HPM_P1;HPM_P2
2022/04/16 00:02:27;;;;;;;8.13;5.20;;;;;;;11.77;58.58;100087.97;7683411;32;40556;-71
2022/04/16 00:06:43;;;;;;;8.68;5.12;;;;;;;11.81;58.34;100080.87;7683629;32;41576;-71
2022/04/16 00:11:00;;;;;;;8.85;5.05;;;;;;;11.95;57.69;100067.50;7683357;32;37906;-71
2022/04/16 00:15:17;;;;;;;8.77;5.55;;;;;;;11.42;59.27;100077.81;7683301;32;36999;-71
2022/04/16 00:19:34;;;;;;;8.80;5.40;;;;;;;11.37;59.63;100077.81;7683015;32;40055;-71
2022/04/16 00:23:51;;;;;;;12.05;6.00;;;;;;;11.35;59.63;100069.06;7683052;32;40849;-71
2022/04/16 00:28:08;;;;;;;11.88;5.90;;;;;;;10.76;62.19;100059.34;7682820;32;38675;-71
2022/04/16 00:32:24;;;;;;;8.75;5.72;;;;;;;11.59;59.18;100067.47;7682903;32;38491;-71
2022/04/16 00:36:44;;;;;;;9.85;5.80;;;;;;;11.52;59.17;100064.19;7682824;32;40630;-72
2022/04/16 00:41:02;;;;;;;9.90;5.70;;;;;;;11.57;58.84;100066.94;7682633;32;41034;-71
2022/04/16 00:45:18;;;;;;;9.23;5.72;;;;;;;11.36;59.18;100062.53;7682578;32;37872;-72
2022/04/16 00:49:34;;;;;;;10.98;6.37;;;;;;;11.32;59.40;100059.50;7682592;32;38099;-72
2022/04/16 00:53:51;;;;;;;11.38;6.25;;;;;;;11.03;60.16;100050.97;7682705;32;39061;-72
2022/04/16 00:58:07;;;;;;;12.75;7.40;;;;;;;11.14;60.01;100063.56;7685551;32;40731;-72
2022/04/16 01:02:24;;;;;;;11.57;6.70;;;;;;;10.75;61.33;100074.87;7685036;32;37963;-71
2022/04/16 01:06:42;;;;;;;11.82;6.85;;;;;;;11.23;59.68;100070.13;7685950;32;38641;-72
2022/04/16 01:10:58;;;;;;;12.88;7.68;;;;;;;10.86;60.88;100067.56;7685688;32;39360;-72
2022/04/16 01:15:14;;;;;;;11.88;7.25;;;;;;;10.81;60.83;100064.81;7685664;32;39976;-72
2022/04/16 01:19:30;;;;;;;13.30;8.00;;;;;;;11.20;59.50;100061.69;7685591;32;38149;-71
2022/04/16 01:23:46;;;;;;;14.23;9.20;;;;;;;11.06;60.14;100077.72;7685587;32;36811;-72
2022/04/16 01:28:03;;;;;;;17.25;9.50;;;;;;;10.88;61.01;100079.84;7685590;32;39050;-72
2022/04/16 01:32:20;;;;;;;13.18;8.55;;;;;;;10.98;60.57;100075.53;7685729;32;39981;-71
2022/04/16 01:36:37;;;;;;;17.45;10.05;;;;;;;10.98;59.93;100075.53;7685403;32;38016;-71
2022/04/16 01:40:56;;;;;;;14.87;9.35;;;;;;;10.97;59.88;100071.13;7685349;32;37579;-71
2022/04/16 01:45:17;;;;;;;14.02;9.07;;;;;;;11.07;59.66;100069.28;7685270;32;39386;-72
2022/04/16 01:49:34;;;;;;;17.50;9.73;;;;;;;11.26;59.35;100066.88;7685568;32;40930;-71
2022/04/16 01:53:50;;;;;;;16.35;10.05;;;;;;;11.03;59.95;100068.16;7685155;32;37657;-71
2022/04/16 01:58:06;;;;;;;14.98;8.98;;;;;;;10.95;60.29;100065.97;7685113;32;36930;-72
2022/04/16 02:02:23;;;;;;;14.10;8.95;;;;;;;11.24;59.06;100058.13;7684995;32;40033;-72
2022/04/16 02:06:39;;;;;;;15.43;9.48;;;;;;;11.15;58.89;100062.47;7684393;32;40167;-71
2022/04/16 02:10:55;;;;;;;17.30;10.05;;;;;;;11.22;58.73;100068.50;7685023;32;38779;-71
2022/04/16 02:15:11;;;;;;;19.73;10.15;;;;;;;11.14;59.10;100058.13;7685106;32;37151;-71
2022/04/16 02:19:27;;;;;;;14.43;9.23;;;;;;;10.85;59.95;100061.28;7684943;32;39406;-71
2022/04/16 02:23:43;;;;;;;16.45;9.65;;;;;;;10.78;60.20;100057.16;7684826;32;40790;-72
2022/04/16 02:27:59;;;;;;;16.15;9.35;;;;;;;10.74;60.27;100059.59;7684751;32;37939;-71
2022/04/16 02:32:17;;;;;;;18.10;9.43;;;;;;;10.98;59.31;100048.25;7684816;32;37321;-72
2022/04/16 02:36:33;;;;;;;14.10;9.10;;;;;;;10.90;59.72;100052.31;7683725;32;40313;-72
2022/04/16 02:40:49;;;;;;;16.02;8.95;;;;;;;11.32;58.20;100054.06;7684669;32;40097;-71
2022/04/16 02:49:43;;;;;;;15.88;9.05;;;;;;;10.67;59.79;100053.56;7684663;32;37111;-71
2022/04/16 02:53:59;;;;;;;13.90;8.48;;;;;;;10.84;59.25;100053.38;7684685;32;39391;-71
2022/04/16 02:58:15;;;;;;;15.77;9.15;;;;;;;10.94;58.37;100045.22;7684476;32;39928;-72
2022/04/16 03:02:31;;;;;;;14.68;8.55;;;;;;;11.00;58.13;100043.31;7684171;32;37927;-71
2022/04/16 03:06:47;;;;;;;13.77;9.10;;;;;;;10.60;59.11;100036.63;7684505;32;37080;-72
2022/04/16 03:11:06;;;;;;;15.35;9.38;;;;;;;10.60;58.94;100034.72;7684213;32;39303;-71
2022/04/16 03:19:58;;;;;;;14.70;8.05;;;;;;;10.65;58.91;100042.12;7684032;32;37925;-71
2022/04/16 03:24:14;;;;;;;15.00;8.43;;;;;;;10.45;59.48;100035.50;7684287;32;38290;-71
2022/04/16 03:28:31;;;;;;;14.27;7.47;;;;;;;10.44;59.52;100042.03;7684227;32;39613;-71
2022/04/16 03:32:47;;;;;;;14.68;8.20;;;;;;;10.35;59.90;100040.87;7683981;32;41007;-71
2022/04/16 03:37:04;;;;;;;13.07;8.23;;;;;;;10.44;59.18;100039.28;7683913;32;38020;-71
2022/04/16 03:41:20;;;;;;;13.32;8.57;;;;;;;10.54;59.03;100030.34;7683926;32;36787;-71
2022/04/16 03:45:37;;;;;;;13.77;8.05;;;;;;;10.80;58.15;100031.28;7683956;32;40065;-71
2022/04/16 03:49:54;;;;;;;14.10;7.68;;;;;;;10.87;57.57;100031.84;7683705;32;40851;-71
2022/04/16 03:59:59;;;;;;;11.57;6.95;;;;;;;10.44;58.73;100038.47;7683554;32;37248;-71
2022/04/16 04:03:33;;;;;;;16.62;7.10;;;;;;;9.87;60.54;100045.44;7683197;32;39055;-71
2022/04/16 04:07:48;;;;;;;13.25;7.47;;;;;;;10.21;59.67;100034.22;7683523;32;40011;-71
2022/04/16 04:12:10;;;;;;;12.05;7.35;;;;;;;10.20;59.67;100041.56;7683300;32;38970;-71
2022/04/16 04:16:26;;;;;;;11.43;7.40;;;;;;;9.93;60.69;100049.84;7683323;32;37610;-72
2022/04/16 04:20:42;;;;;;;10.10;6.15;;;;;;;10.36;59.43;100042.50;7683113;32;40236;-71
2022/04/16 04:24:58;;;;;;;11.70;6.75;;;;;;;9.60;61.80;100035.41;7682981;32;39894;-71
2022/04/16 04:29:14;;;;;;;12.40;6.78;;;;;;;10.05;60.30;100047.75;7683417;32;37619;-71
2022/04/16 04:33:33;;;;;;;12.02;6.78;;;;;;;9.78;61.08;100061.44;7686193;32;37048;-71
2022/04/16 04:37:49;;;;;;;10.88;6.75;;;;;;;9.75;61.39;100070.94;7686111;32;38448;-71
2022/04/16 04:42:05;;;;;;;14.73;6.70;;;;;;;9.80;61.34;100074.81;7686010;32;39713;-71
2022/04/16 04:46:21;;;;;;;11.60;6.93;;;;;;;10.08;59.89;100077.19;7685991;32;38018;-71
2022/04/16 04:50:37;;;;;;;10.52;6.57;;;;;;;10.07;59.44;100086.47;7685947;32;37129;-71
2022/04/16 04:54:54;;;;;;;11.30;6.50;;;;;;;10.13;59.46;100082.66;7685858;32;39274;-72
2022/04/16 04:59:10;;;;;;;9.52;6.57;;;;;;;10.61;58.00;100088.19;7685713;32;40031;-71
2022/04/16 05:03:26;;;;;;;8.50;5.70;;;;;;;10.43;58.31;100097.59;7685628;32;37689;-71
2022/04/16 05:07:43;;;;;;;10.00;5.70;;;;;;;10.63;57.92;100098.81;7685773;32;36759;-72
2022/04/16 05:11:59;;;;;;;8.90;5.45;;;;;;;10.86;57.09;100100.28;7685708;32;39388;-71
2022/04/16 05:16:15;;;;;;;8.68;5.43;;;;;;;10.92;57.12;100103.84;7685630;32;39963;-71
2022/04/16 05:20:31;;;;;;;9.95;5.37;;;;;;;11.03;56.47;100111.00;7685433;32;38260;-72
2022/04/16 05:24:47;;;;;;;8.00;5.15;;;;;;;11.20;55.70;100111.59;7685539;32;37359;-72
2022/04/16 05:29:06;;;;;;;11.30;5.45;;;;;;;11.19;55.48;100109.97;7685518;32;39341;-72
2022/04/16 05:37:59;;;;;;;8.10;4.85;;;;;;;11.23;55.27;100124.72;7685443;32;37586;-71
2022/04/16 05:42:18;;;;;;;7.68;5.00;;;;;;;11.33;54.77;100123.09;7684399;32;37092;-72
2022/04/16 05:46:34;;;;;;;7.95;4.82;;;;;;;10.73;55.83;100123.41;7685339;32;39874;-71
2022/04/16 05:50:51;;;;;;;9.35;5.93;;;;;;;10.97;55.55;100122.97;7685071;32;40553;-71
2022/04/16 05:55:08;;;;;;;7.28;4.15;;;;;;;11.20;55.55;100119.78;7685468;32;37988;-71
2022/04/16 05:59:24;;;;;;;7.12;4.55;;;;;;;11.48;54.54;100123.16;7685111;32;37850;-72
2022/04/16 06:03:40;;;;;;;8.07;4.50;;;;;;;11.31;55.10;100133.47;7684892;32;40182;-72
2022/04/16 06:07:56;;;;;;;6.70;4.45;;;;;;;11.20;55.77;100141.63;7685268;32;41368;-72
2022/04/16 06:12:12;;;;;;;9.07;5.15;;;;;;;10.95;55.47;100141.50;7685086;32;38478;-72
2022/04/16 06:16:28;;;;;;;8.75;5.10;;;;;;;11.42;54.86;100146.06;7685113;32;38181;-72
2022/04/16 06:20:44;;;;;;;6.93;3.97;;;;;;;11.98;53.42;100139.91;7684929;32;40139;-72
2022/04/16 06:25:00;;;;;;;8.55;4.75;;;;;;;12.15;53.00;100137.72;7684854;32;39892;-71
2022/04/16 06:29:22;;;;;;;7.10;4.25;;;;;;;12.28;52.53;100136.38;7684836;32;38886;-71
2022/04/16 06:33:38;;;;;;;7.00;3.75;;;;;;;12.47;51.55;100147.56;7684959;32;37975;-72
2022/04/16 06:37:54;;;;;;;6.10;4.05;;;;;;;11.41;54.29;100149.88;7684843;32;39005;-72
2022/04/16 06:42:10;;;;;;;7.68;4.40;;;;;;;11.83;53.45;100149.72;7684722;32;39667;-72
2022/04/16 06:46:26;;;;;;;5.93;3.62;;;;;;;11.30;54.47;100151.75;7684597;32;38637;-71
2022/04/16 06:50:42;;;;;;;5.10;3.90;;;;;;;11.38;54.19;100158.59;7684701;32;36972;-72
2022/04/16 06:54:59;;;;;;;6.65;3.90;;;;;;;11.54;54.62;100154.84;7684168;32;39141;-72
2022/04/16 06:59:15;;;;;;;6.50;4.12;;;;;;;11.80;54.00;100157.62;7684380;32;39942;-71
2022/04/16 07:03:32;;;;;;;6.37;3.87;;;;;;;11.68;54.25;100166.06;7684198;32;38815;-72
2022/04/16 07:07:48;;;;;;;7.05;4.00;;;;;;;11.74;53.60;100167.69;7684368;32;37172;-72
2022/04/16 07:12:05;;;;;;;6.47;3.97;;;;;;;11.82;53.54;100158.97;7684311;32;40300;-72
2022/04/16 07:16:21;;;;;;;7.05;3.95;;;;;;;12.47;51.04;100160.38;7684275;32;40689;-72
2022/04/16 07:20:37;;;;;;;6.20;3.65;;;;;;;12.51;51.21;100156.03;7684173;32;37996;-72
2022/04/16 07:24:53;;;;;;;5.32;3.37;;;;;;;12.10;52.52;100162.31;7684385;32;36935;-72
2022/04/16 07:29:09;;;;;;;5.12;3.12;;;;;;;13.22;50.13;100154.16;7684108;32;39285;-72
2022/04/16 07:33:29;;;;;;;5.47;3.20;;;;;;;13.29;49.25;100160.16;7684033;32;39749;-72
2022/04/16 07:37:46;;;;;;;6.55;3.65;;;;;;;13.01;49.13;100167.94;7683522;32;38702;-72
2022/04/16 07:42:02;;;;;;;4.22;2.95;;;;;;;13.77;46.78;100167.88;7683769;32;37191;-72
2022/04/16 07:46:21;;;;;;;4.10;2.40;;;;;;;13.17;48.01;100167.88;7683892;32;40206;-72
2022/04/16 07:50:38;;;;;;;6.80;2.80;;;;;;;13.69;47.47;100170.13;7683861;32;39932;-72
2022/04/16 07:54:54;;;;;;;4.62;2.50;;;;;;;13.82;47.37;100165.91;7683532;32;38004;-72
2022/04/16 07:59:11;;;;;;;3.87;2.42;;;;;;;13.65;46.88;100165.50;7683380;32;37269;-72
2022/04/16 08:03:27;;;;;;;5.93;2.80;;;;;;;13.56;46.98;100164.44;7682275;32;40140;-72
2022/04/16 08:07:44;;;;;;;9.85;2.50;;;;;;;14.20;46.10;100160.69;7683028;32;40771;-72
2022/04/16 08:12:00;;;;;;;3.50;2.42;;;;;;;14.04;46.22;100161.94;7675998;32;228694;-72
2022/04/16 08:16:16;;;;;;;4.25;2.35;;;;;;;14.55;44.62;100164.22;7683014;32;38079;-73
2022/04/16 08:20:32;;;;;;;10.75;2.55;;;;;;;14.65;44.54;100155.91;7683073;32;40396;-72
2022/04/16 08:25:43;;;;;;;5.25;2.80;;;;;;;14.72;44.42;100152.03;7682967;32;39568;-72
2022/04/16 08:29:32;;;;;;;3.10;2.30;;;;;;;15.01;43.79;100150.03;7682711;32;37910;-72
2022/04/16 08:33:49;;;;;;;3.12;2.03;;;;;;;15.56;43.50;100143.31;7682873;32;37171;-72
2022/04/16 08:38:05;;;;;;;3.00;2.00;;;;;;;16.19;41.79;100146.78;7682663;32;39682;-73
2022/04/16 08:42:21;;;;;;;3.05;2.12;;;;;;;16.95;39.88;100138.25;7682375;32;40902;-72
2022/04/16 08:46:38;;;;;;;2.47;1.83;;;;;;;16.81;38.64;100143.75;7682369;32;38254;-72
2022/04/16 08:50:54;;;;;;;2.78;1.80;;;;;;;17.07;38.01;100149.59;7682451;32;37860;-72
2022/04/16 08:55:12;;;;;;;3.62;1.80;;;;;;;16.50;38.38;100147.88;7682302;32;39113;-72
2022/04/16 08:59:28;;;;;;;2.28;1.60;;;;;;;16.05;39.43;100150.28;7682306;32;40708;-72
2022/04/16 09:03:53;;;;;;;1.85;1.60;;;;;;;16.03;39.99;100141.53;7681988;32;38062;-72
2022/04/16 09:08:10;;;;;;;2.22;1.70;;;;;;;16.55;38.69;100148.91;7682076;32;37799;-73
2022/04/16 09:12:26;;;;;;;2.75;1.70;;;;;;;17.34;36.28;100139.69;7682087;32;39607;-72
2022/04/16 09:16:42;;;;;;;2.67;1.90;;;;;;;16.77;37.40;100138.03;7683750;32;39887;-72
2022/04/16 09:20:59;;;;;;;1.92;1.73;;;;;;;16.93;36.23;100141.31;7685517;32;38124;-73
2022/04/16 09:25:17;;;;;;;2.65;1.70;;;;;;;16.20;37.31;100153.94;7685585;32;37977;-72
2022/04/16 09:29:33;;;;;;;2.17;1.52;;;;;;;16.50;36.67;100149.81;7685699;32;38485;-72
2022/04/16 09:33:49;;;;;;;1.70;1.60;;;;;;;16.88;36.43;100133.16;7685427;32;39967;-73
2022/04/16 09:38:08;;;;;;;3.90;1.70;;;;;;;17.06;34.28;100146.03;7685327;32;38727;-72
2022/04/16 09:42:26;;;;;;;2.22;1.50;;;;;;;16.78;35.75;100144.34;7685146;32;37752;-72
2022/04/16 09:46:44;;;;;;;3.25;1.80;;;;;;;16.48;36.90;100139.09;7685336;32;40059;-73
2022/04/16 09:51:00;;;;;;;2.25;1.90;;;;;;;16.68;36.44;100140.66;7684083;32;39996;-73
2022/04/16 09:55:17;;;;;;;2.05;1.50;;;;;;;16.57;35.55;100157.66;7685129;32;38042;-73
2022/04/16 09:59:36;;;;;;;2.03;1.67;;;;;;;16.27;36.73;100152.41;7683940;32;37106;-73
2022/04/16 10:03:53;;;;;;;1.60;1.37;;;;;;;16.22;36.34;100157.19;7684797;32;39030;-72
2022/04/16 10:08:10;;;;;;;4.85;1.73;;;;;;;16.14;37.25;100154.00;7684809;32;39988;-73
2022/04/16 10:17:11;;;;;;;2.00;1.48;;;;;;;16.33;37.19;100155.87;7685007;32;37222;-72
2022/04/16 10:21:35;;;;;;;1.87;1.50;;;;;;;16.95;35.00;100152.84;7684822;32;39710;-73
2022/04/16 10:25:51;;;;;;;2.25;1.60;;;;;;;17.01;34.71;100153.56;7684828;32;40046;-73
2022/04/16 10:30:12;;;;;;;1.73;1.40;;;;;;;17.52;34.85;100149.72;7684002;32;39032;-73
2022/04/16 10:34:31;;;;;;;2.58;1.65;;;;;;;16.84;34.27;100155.00;7684834;32;36941;-72
2022/04/16 10:38:51;;;;;;;2.45;1.40;;;;;;;16.40;35.98;100161.84;7684597;32;40208;-73
2022/04/16 10:43:23;;;;;;;1.60;1.33;;;;;;;16.27;36.40;100157.09;7684538;32;40015;-73
2022/04/16 10:47:41;;;;;;;1.75;1.55;;;;;;;16.93;35.49;100152.34;7683615;32;38116;-73
2022/04/16 10:51:57;;;;;;;2.75;1.80;;;;;;;17.39;34.55;100142.31;7684591;32;37779;-73
2022/04/16 10:56:20;;;;;;;5.55;1.60;;;;;;;16.84;33.91;100145.91;7684568;32;39326;-73
2022/04/16 11:00:44;;;;;;;1.55;1.45;;;;;;;17.50;34.38;100149.22;7684326;32;40884;-73
2022/04/16 11:05:03;;;;;;;1.80;1.30;;;;;;;17.25;33.29;100156.94;7684036;32;38248;-73
2022/04/16 11:09:19;;;;;;;2.00;1.35;;;;;;;17.08;33.37;100142.97;7684480;32;38903;-73
2022/04/16 11:13:38;;;;;;;5.12;1.80;;;;;;;17.31;33.50;100149.34;7684329;32;39246;-73
2022/04/16 11:18:01;;;;;;;2.58;1.60;;;;;;;17.93;32.87;100151.56;7684295;32;40215;-72
2022/04/16 11:22:17;;;;;;;;;;;;;;;17.63;31.96;100150.34;7684494;32;38163;-73
2022/04/16 11:35:59;;;;;;;4.03;1.60;;;;;;;17.21;33.63;100150.41;7683194;32;40267;-73
2022/04/16 11:40:15;;;;;;;11.23;3.05;;;;;;;18.38;32.47;100128.69;7683709;32;38659;-74
2022/04/16 11:44:38;;;;;;;2.00;1.08;;;;;;;18.44;30.16;100135.72;7683739;32;37343;-73
2022/04/16 11:48:58;;;;;;;;;;;;;;;18.23;29.88;100132.66;7684081;32;40175;-73
2022/04/16 11:53:14;;;;;;;2.92;1.02;;;;;;;18.14;30.31;100123.50;7684348;32;40248;-72
2022/04/16 11:57:31;;;;;;;2.53;1.17;;;;;;;17.55;31.19;100129.00;7683913;32;37693;-73
2022/04/16 12:01:55;;;;;;;2.10;1.12;;;;;;;17.27;31.87;100118.84;7682480;32;36955;-72
2022/04/16 12:06:12;;;;;;;6.65;1.10;;;;;;;16.85;32.80;100136.53;7682693;32;39520;-73
2022/04/16 12:10:29;;;;;;;2.62;1.70;;;;;;;17.40;31.63;100119.97;7683602;32;39835;-73
2022/04/16 12:14:50;;;;;;;6.45;1.55;;;;;;;16.88;31.91;100113.88;7683527;32;38037;-72
2022/04/16 12:19:06;;;;;;;1.10;1.02;;;;;;;17.02;32.50;100127.66;7683676;32;37820;-73
2022/04/16 12:23:25;;;;;;;2.85;1.70;;;;;;;16.92;32.10;100125.09;7683454;32;39014;-72
2022/04/16 12:27:45;;;;;;;1.17;1.08;;;;;;;16.28;32.99;100117.44;7683231;32;39891;-72
2022/04/16 12:32:01;;;;;;;2.37;1.20;;;;;;;17.06;32.15;100117.66;7683117;32;38493;-72
2022/04/16 12:36:17;;;;;;;0.88;0.88;;;;;;;16.66;32.40;100120.06;7683298;32;37392;-72
2022/04/16 12:40:35;;;;;;;2.08;1.27;;;;;;;16.94;32.55;100125.63;7682787;32;39319;-73
2022/04/16 12:44:51;;;;;;;2.25;1.10;;;;;;;16.83;32.53;100120.31;7682954;32;40007;-72
2022/04/16 12:49:07;;;;;;;1.10;1.00;;;;;;;16.98;31.58;100115.63;7682650;32;36190;-72
2022/04/16 12:53:24;;;;;;;1.67;1.10;;;;;;;17.18;32.38;100114.41;7685903;32;37265;-73
2022/04/16 12:57:42;;;;;;;3.53;1.00;;;;;;;17.35;31.26;100125.59;7686261;32;39150;-73
2022/04/16 13:01:58;;;;;;;2.65;1.30;;;;;;;16.73;32.15;100115.00;7685832;32;41019;-73
2022/04/16 13:06:14;;;;;;;0.80;0.80;;;;;;;16.94;32.27;100111.87;7685742;32;38462;-72
2022/04/16 13:10:30;;;;;;;4.03;1.20;;;;;;;16.83;32.34;100109.28;7686064;32;37595;-74
2022/04/16 13:14:46;;;;;;;0.90;0.90;;;;;;;16.65;31.64;100108.25;7684813;32;39035;-72
2022/04/16 13:19:02;;;;;;;2.50;0.93;;;;;;;16.62;33.08;100105.28;7685915;32;39898;-72
2022/04/16 13:23:19;;;;;;;1.77;1.62;;;;;;;16.99;31.85;100100.72;7685873;32;37717;-72
2022/04/16 13:27:35;;;;;;;1.27;1.00;;;;;;;17.26;32.21;100089.69;7686038;32;37058;-72
2022/04/16 13:31:52;;;;;;;2.75;1.17;;;;;;;17.31;31.44;100101.72;7685793;32;40062;-73
2022/04/16 13:36:08;;;;;;;1.35;1.15;;;;;;;17.39;31.76;100110.06;7685780;32;40897;-72
2022/04/16 13:44:59;;;;;;;0.70;0.70;;;;;;;17.81;30.34;100113.50;7685761;32;37759;-73
2022/04/16 13:49:15;;;;;;;2.75;1.50;;;;;;;18.29;29.07;100131.38;7685765;32;39307;-73
2022/04/16 13:53:31;;;;;;;3.42;1.92;;;;;;;18.08;32.14;100139.38;7685547;32;39872;-73
2022/04/16 13:57:47;;;;;;;1.55;1.45;;;;;;;17.47;35.76;100147.09;7685433;32;37989;-72
2022/04/16 14:02:05;;;;;;;2.58;1.70;;;;;;;17.22;42.63;100165.81;7684365;32;38069;-72
2022/04/16 14:06:21;;;;;;;2.75;1.62;;;;;;;16.94;43.77;100170.50;7685459;32;39363;-72
2022/04/16 14:10:38;;;;;;;3.00;1.98;;;;;;;16.66;43.24;100164.09;7685355;32;40813;-72
2022/04/16 14:14:54;;;;;;;5.85;1.70;;;;;;;16.32;44.77;100171.56;7685317;32;37749;-72
2022/04/16 14:19:11;;;;;;;3.17;2.10;;;;;;;15.73;47.77;100179.34;7685395;32;36785;-72
2022/04/16 14:23:34;;;;;;;4.65;2.80;;;;;;;15.74;47.57;100182.91;7685296;32;39920;-72
2022/04/16 14:27:51;;;;;;;3.97;2.40;;;;;;;15.73;47.48;100187.59;7685242;32;39655;-72
2022/04/16 14:32:08;;;;;;;3.72;2.33;;;;;;;15.16;49.76;100184.75;7684988;32;37974;-73
2022/04/16 14:36:24;;;;;;;4.87;2.87;;;;;;;15.63;49.05;100190.47;7685117;32;37790;-72
2022/04/16 14:40:41;;;;;;;4.22;2.40;;;;;;;15.14;48.51;100192.47;7685067;32;39093;-72
2022/04/16 14:44:57;;;;;;;5.37;3.30;;;;;;;14.97;50.72;100192.09;7684963;32;40804;-72
2022/04/16 14:49:15;;;;;;;5.28;3.10;;;;;;;15.03;49.67;100208.22;7684784;32;37955;-72
2022/04/16 14:53:38;;;;;;;3.97;2.58;;;;;;;15.11;49.47;100209.53;7685160;32;37044;-71
2022/04/16 14:57:54;;;;;;;3.65;2.65;;;;;;;15.18;48.30;100209.19;7684747;32;39898;-72
2022/04/16 15:02:10;;;;;;;5.60;2.45;;;;;;;14.98;49.62;100219.25;7684533;32;39816;-72
2022/04/16 15:06:26;;;;;;;3.70;2.58;;;;;;;15.01;48.71;100231.59;7684687;32;37780;-71
2022/04/16 15:10:42;;;;;;;3.75;2.62;;;;;;;15.05;48.61;100229.91;7684730;32;37822;-71
2022/04/16 15:14:59;;;;;;;5.70;3.00;;;;;;;15.18;48.72;100236.66;7684360;32;39402;-72
2022/04/16 15:19:15;;;;;;;4.90;3.12;;;;;;;14.50;51.19;100249.31;7684663;32;39956;-72
2022/04/16 15:23:31;;;;;;;4.93;3.00;;;;;;;14.31;51.25;100243.69;7684377;32;38023;-73
2022/04/16 15:27:48;;;;;;;6.43;3.60;;;;;;;13.80;53.17;100247.59;7684551;32;37388;-72
2022/04/16 15:32:04;;;;;;;8.18;3.97;;;;;;;13.46;53.88;100248.28;7684664;32;40209;-72
2022/04/16 15:36:20;;;;;;;29.12;16.35;;;;;;;13.63;53.20;100255.34;7684472;32;39705;-72
2022/04/16 15:40:36;;;;;;;25.30;12.98;;;;;;;13.67;53.37;100251.75;7684447;32;37770;-72
2022/04/16 15:44:53;;;;;;;23.55;13.80;;;;;;;14.31;51.58;100248.38;7684215;32;37778;-72
2022/04/16 15:49:10;;;;;;;16.45;10.05;;;;;;;14.02;53.24;100260.06;7684100;32;40083;-72
2022/04/16 15:53:26;;;;;;;9.00;5.25;;;;;;;14.30;52.15;100261.28;7684017;32;40025;-72
2022/04/16 15:57:42;;;;;;;21.12;12.02;;;;;;;13.98;53.13;100268.03;7683917;32;38854;-72
2022/04/16 16:01:58;;;;;;;50.35;27.08;;;;;;;14.02;53.35;100269.12;7683860;32;37745;-72
2022/04/16 16:06:14;;;;;;;12.73;5.25;;;;;;;13.80;53.87;100275.00;7682505;32;39952;-72
2022/04/16 16:10:30;;;;;;;5.57;3.33;;;;;;;13.79;53.97;100278.03;7683778;32;39653;-72
2022/04/16 16:14:46;;;;;;;5.43;3.37;;;;;;;13.71;54.08;100287.63;7683757;32;37762;-72
2022/04/16 16:19:02;;;;;;;6.47;3.53;;;;;;;13.93;53.85;100290.00;7683650;32;37658;-72
2022/04/16 16:23:18;;;;;;;8.45;3.72;;;;;;;14.00;53.92;100289.69;7683583;32;39858;-72
2022/04/16 16:27:34;;;;;;;8.45;4.07;;;;;;;13.83;54.60;100304.59;7682520;32;39714;-72
2022/04/16 16:31:56;;;;;;;7.93;4.35;;;;;;;14.12;54.20;100303.88;7683275;32;37667;-71
2022/04/16 16:36:12;;;;;;;6.95;3.97;;;;;;;13.83;54.65;100315.56;7683712;32;37590;-72
2022/04/16 16:40:28;;;;;;;11.18;4.87;;;;;;;13.85;53.65;100305.13;7683196;32;39954;-72
2022/04/16 16:44:44;;;;;;;7.53;4.15;;;;;;;14.02;53.53;100310.25;7682808;32;39644;-72
2022/04/16 16:49:00;;;;;;;7.90;4.43;;;;;;;13.92;54.13;100314.94;7682892;32;37711;-72
2022/04/16 16:53:17;;;;;;;9.23;4.93;;;;;;;14.18;53.71;100323.88;7681758;32;38020;-73
2022/04/16 16:57:35;;;;;;;5.87;3.72;;;;;;;14.22;53.70;100333.16;7682303;32;40150;-73
2022/04/16 17:01:52;;;;;;;7.62;4.30;;;;;;;13.89;53.86;100339.09;7682524;32;40770;-72
2022/04/16 17:06:10;;;;;;;7.20;3.92;;;;;;;13.96;52.10;100343.44;7677700;32;38798;-73
2022/04/16 17:10:26;;;;;;;4.80;2.80;;;;;;;13.74;52.59;100347.34;7681702;32;37029;-72
2022/04/16 17:19:17;;;;;;;4.25;2.00;;;;;;;13.84;48.97;100368.44;7681990;32;40778;-71
2022/04/16 17:23:38;;;;;;;10.18;4.15;;;;;;;13.46;46.60;100382.50;7674949;32;38145;-73
2022/04/16 17:27:55;;;;;;;6.05;2.85;;;;;;;13.55;46.50;100393.72;7676443;32;37142;-72
2022/04/16 17:32:11;;;;;;;5.45;3.08;;;;;;;13.07;47.17;100402.22;7683569;32;39747;-72
2022/04/16 17:36:27;;;;;;;4.87;2.72;;;;;;;13.06;46.97;100417.00;7697305;32;39860;-72
2022/04/16 17:40:43;;;;;;;2.35;2.15;;;;;;;13.12;45.44;100434.25;7694711;32;38025;-71
2022/04/16 17:44:59;;;;;;;3.17;2.33;;;;;;;12.66;45.65;100437.75;7684374;32;37543;-71
2022/04/16 17:49:16;;;;;;;3.28;2.42;;;;;;;12.64;45.76;100456.34;7685451;32;39479;-71
2022/04/16 17:53:32;;;;;;;4.55;2.78;;;;;;;11.92;47.22;100471.59;7685318;32;40705;-71
2022/04/16 17:57:48;;;;;;;3.87;2.72;;;;;;;12.19;46.15;100494.16;7685168;32;37868;-71
2022/04/16 18:02:11;;;;;;;6.57;3.10;;;;;;;12.48;45.11;100496.47;7685293;32;37199;-72
2022/04/16 18:06:27;;;;;;;4.57;3.00;;;;;;;11.92;46.85;100513.41;7685426;32;39319;-70
2022/04/16 18:10:43;;;;;;;5.65;3.33;;;;;;;12.04;46.10;100518.69;7685158;32;39592;-70
2022/04/16 18:14:59;;;;;;;5.62;2.95;;;;;;;12.23;45.48;100529.16;7684898;32;38672;-71
2022/04/16 18:19:17;;;;;;;7.32;4.50;;;;;;;11.96;45.61;100544.56;7683713;32;37237;-70
2022/04/16 18:23:33;;;;;;;7.47;3.97;;;;;;;11.80;45.50;100554.53;7684721;32;40121;-71
2022/04/16 18:27:49;;;;;;;5.25;3.20;;;;;;;11.78;46.17;100564.06;7685082;32;39880;-70
2022/04/16 18:32:06;;;;;;;7.15;3.17;;;;;;;11.80;44.92;100567.38;7683793;32;37877;-71
2022/04/16 18:36:23;;;;;;;6.43;3.20;;;;;;;11.56;46.08;100572.37;7683810;32;36705;-71
2022/04/16 18:40:39;;;;;;;5.45;3.42;;;;;;;11.69;45.91;100587.50;7683811;32;39415;-71
2022/04/16 18:44:55;;;;;;;6.45;3.37;;;;;;;11.49;46.14;100599.87;7683914;32;39939;-73
2022/04/16 18:49:11;;;;;;;7.95;4.60;;;;;;;11.61;45.38;100600.53;7684010;32;37891;-71
2022/04/16 18:53:27;;;;;;;12.80;6.15;;;;;;;11.56;45.16;100621.53;7684572;32;37289;-73
2022/04/16 18:57:43;;;;;;;11.98;5.25;;;;;;;11.44;45.70;100618.94;7684504;32;40088;-72
2022/04/16 19:06:52;;;;;;;11.63;6.57;;;;;;;11.36;44.28;100630.31;7684079;32;38048;-73
2022/04/16 19:11:09;;;;;;;9.70;4.80;;;;;;;11.31;44.93;100631.06;7680655;32;36918;-73
2022/04/16 19:15:47;;;;;;;7.78;3.83;;;;;;;11.37;44.88;100640.16;7658591;32;40590;-72
2022/04/16 19:20:04;;;;;;;7.53;4.12;;;;;;;11.51;44.19;100635.94;7657511;32;40310;-73
2022/04/16 19:24:20;;;;;;;5.05;3.22;;;;;;;11.20;45.08;100653.87;7657918;32;37926;-72
2022/04/16 19:28:36;;;;;;;4.65;3.17;;;;;;;11.25;41.57;100660.22;7658072;32;36807;-72
2022/04/16 19:32:52;;;;;;;10.13;5.85;;;;;;;11.60;41.21;100664.44;7657973;32;39006;-72
2022/04/16 19:37:09;;;;;;;5.40;3.12;;;;;;;11.10;43.64;100681.88;7657731;32;40692;-73
2022/04/16 19:41:25;;;;;;;4.40;2.85;;;;;;;11.07;42.77;100683.22;7678314;32;38057;-72
2022/04/16 19:46:03;;;;;;;4.03;2.90;;;;;;;11.10;44.41;100690.06;7684097;32;37298;-72
2022/04/16 19:50:45;;;;;;;5.97;3.35;;;;;;;10.75;43.20;100691.22;7681036;32;39888;-72
2022/04/16 19:55:03;;;;;;;5.95;3.08;;;;;;;10.78;41.66;100698.06;7684063;32;39964;-72
2022/04/16 19:59:19;;;;;;;5.00;3.10;;;;;;;10.96;42.79;100694.25;7673589;32;37882;-72
2022/04/16 20:03:36;;;;;;;4.22;2.70;;;;;;;10.46;42.47;100690.53;7668868;32;37761;-72
2022/04/16 20:07:52;;;;;;;4.32;2.70;;;;;;;11.05;42.16;100692.72;7673185;32;39076;-73
2022/04/16 20:12:10;;;;;;;4.97;3.10;;;;;;;10.91;41.25;100692.25;7669826;32;38079;-72
2022/04/16 20:16:27;;;;;;;7.22;2.65;;;;;;;10.61;43.24;100698.94;7669735;32;37705;-72
2022/04/16 20:20:45;;;;;;;6.12;2.83;;;;;;;10.62;43.63;100697.03;7669126;32;37666;-72
2022/04/16 20:25:01;;;;;;;5.60;2.90;;;;;;;10.81;43.39;100701.13;7667614;32;39937;-72
2022/04/16 20:29:17;;;;;;;4.72;2.67;;;;;;;10.75;43.77;100704.87;7669880;32;39853;-71
2022/04/16 20:33:33;;;;;;;5.03;2.90;;;;;;;11.06;43.03;100706.12;7662374;32;38038;-72
2022/04/16 20:37:49;;;;;;;5.22;2.95;;;;;;;10.88;42.34;100712.69;7656869;32;37027;-71
2022/04/16 20:46:40;;;;;;;7.68;3.17;;;;;;;10.96;44.03;100710.63;7682671;32;39895;-71